sensor_id;sensor_type;location;lat;lon;timestamp;temperature;humidity
782;DHT22;374;52.568;13.402;2023-10-08T00:01:14;14.20;99.90
782;DHT22;374;52.568;13.402;2023-10-08T00:03:44;14.30;99.90
782;DHT22;374;52.568;13.402;2023-10-08T00:06:15;14.20;99.90
782;DHT22;374;52.568;13.402;2023-10-08T00:08:45;14.20;99.90
782;DHT22;374;52.568;13.402;2023-10-08T00:11:10;14.20;99.90
782;DHT22;374;52.568;13.402;2023-10-08T00:13:36;14.20;99.90
782;DHT22;374;52.568;13.402;2023-10-08T00:16:06;14.20;99.90
782;DHT22;374;52.568;13.402;2023-10-08T00:18:36;14.10;99.90
782;DHT22;374;52.568;13.402;2023-10-08T00:21:03;14.20;99.90
782;DHT22;374;52.568;13.402;2023-10-08T00:23:37;14.10;99.90
782;DHT22;374;52.568;13.402;2023-10-08T00:26:20;14.10;99.90
782;DHT22;374;52.568;13.402;2023-10-08T00:28:59;14.10;99.90
782;DHT22;374;52.568;13.402;2023-10-08T00:31:26;14.10;99.90
782;DHT22;374;52.568;13.402;2023-10-08T00:34:06;14.10;99.90
782;DHT22;374;52.568;13.402;2023-10-08T00:36:37;14.10;99.90
782;DHT22;374;52.568;13.402;2023-10-08T00:39:04;14.10;99.90
782;DHT22;374;52.568;13.402;2023-10-08T00:41:33;14.10;99.90
782;DHT22;374;52.568;13.402;2023-10-08T00:43:59;14.10;99.90
782;DHT22;374;52.568;13.402;2023-10-08T00:46:26;14.10;99.90
782;DHT22;374;52.568;13.402;2023-10-08T00:48:59;14.10;99.90
782;DHT22;374;52.568;13.402;2023-10-08T00:51:38;14.00;99.90
782;DHT22;374;52.568;13.402;2023-10-08T00:54:08;14.10;99.90
782;DHT22;374;52.568;13.402;2023-10-08T00:56:35;14.00;99.90
782;DHT22;374;52.568;13.402;2023-10-08T00:59:20;14.00;99.90
782;DHT22;374;52.568;13.402;2023-10-08T01:01:49;14.00;99.90
782;DHT22;374;52.568;13.402;2023-10-08T01:04:24;14.00;99.90
782;DHT22;374;52.568;13.402;2023-10-08T01:06:56;14.00;99.90
782;DHT22;374;52.568;13.402;2023-10-08T01:09:26;14.00;99.90
782;DHT22;374;52.568;13.402;2023-10-08T01:12:15;14.00;99.90
782;DHT22;374;52.568;13.402;2023-10-08T01:14:43;14.00;99.90
782;DHT22;374;52.568;13.402;2023-10-08T01:17:10;14.00;99.90
782;DHT22;374;52.568;13.402;2023-10-08T01:19:40;13.90;99.90
782;DHT22;374;52.568;13.402;2023-10-08T01:22:05;14.00;99.90
782;DHT22;374;52.568;13.402;2023-10-08T01:24:32;14.00;99.90
782;DHT22;374;52.568;13.402;2023-10-08T01:27:00;13.90;99.90
782;DHT22;374;52.568;13.402;2023-10-08T01:29:29;13.90;99.90
782;DHT22;374;52.568;13.402;2023-10-08T01:31:55;14.00;99.90
782;DHT22;374;52.568;13.402;2023-10-08T01:34:22;13.90;99.90
782;DHT22;374;52.568;13.402;2023-10-08T01:36:52;13.90;99.90
782;DHT22;374;52.568;13.402;2023-10-08T01:39:18;13.90;99.90
782;DHT22;374;52.568;13.402;2023-10-08T01:41:44;13.90;99.90
782;DHT22;374;52.568;13.402;2023-10-08T01:44:12;13.90;99.90
782;DHT22;374;52.568;13.402;2023-10-08T01:46:37;13.90;99.90
782;DHT22;374;52.568;13.402;2023-10-08T01:49:06;13.80;99.90
782;DHT22;374;52.568;13.402;2023-10-08T01:51:39;13.90;99.90
782;DHT22;374;52.568;13.402;2023-10-08T01:54:09;13.80;99.90
782;DHT22;374;52.568;13.402;2023-10-08T01:56:40;13.80;99.90
782;DHT22;374;52.568;13.402;2023-10-08T01:59:10;13.80;99.90
782;DHT22;374;52.568;13.402;2023-10-08T02:01:37;13.80;99.90
782;DHT22;374;52.568;13.402;2023-10-08T02:04:04;13.80;99.90
782;DHT22;374;52.568;13.402;2023-10-08T02:06:30;13.80;99.90
782;DHT22;374;52.568;13.402;2023-10-08T02:08:56;13.80;99.90
782;DHT22;374;52.568;13.402;2023-10-08T02:11:24;13.80;99.90
782;DHT22;374;52.568;13.402;2023-10-08T02:13:49;13.80;99.90
782;DHT22;374;52.568;13.402;2023-10-08T02:16:20;13.80;99.90
782;DHT22;374;52.568;13.402;2023-10-08T02:18:47;13.80;99.90
782;DHT22;374;52.568;13.402;2023-10-08T02:21:13;13.80;99.90
782;DHT22;374;52.568;13.402;2023-10-08T02:23:39;13.80;99.90
782;DHT22;374;52.568;13.402;2023-10-08T02:26:04;13.70;99.90
782;DHT22;374;52.568;13.402;2023-10-08T02:28:31;13.80;99.90
782;DHT22;374;52.568;13.402;2023-10-08T02:30:58;13.70;99.90
782;DHT22;374;52.568;13.402;2023-10-08T02:33:26;13.70;99.90
782;DHT22;374;52.568;13.402;2023-10-08T02:35:51;13.70;99.90
782;DHT22;374;52.568;13.402;2023-10-08T02:38:19;13.70;99.90
782;DHT22;374;52.568;13.402;2023-10-08T02:40:46;13.80;99.90
782;DHT22;374;52.568;13.402;2023-10-08T02:43:13;13.70;99.90
782;DHT22;374;52.568;13.402;2023-10-08T02:45:45;13.70;99.90
782;DHT22;374;52.568;13.402;2023-10-08T02:48:15;13.70;99.90
782;DHT22;374;52.568;13.402;2023-10-08T02:50:41;13.70;99.90
782;DHT22;374;52.568;13.402;2023-10-08T02:53:07;13.70;99.90
782;DHT22;374;52.568;13.402;2023-10-08T02:55:43;13.60;99.90
782;DHT22;374;52.568;13.402;2023-10-08T02:58:15;13.70;99.90
782;DHT22;374;52.568;13.402;2023-10-08T03:00:42;13.70;99.90
782;DHT22;374;52.568;13.402;2023-10-08T03:03:07;13.70;99.90
782;DHT22;374;52.568;13.402;2023-10-08T03:05:53;13.60;99.90
782;DHT22;374;52.568;13.402;2023-10-08T03:08:22;13.60;99.90
782;DHT22;374;52.568;13.402;2023-10-08T03:10:49;13.60;99.90
782;DHT22;374;52.568;13.402;2023-10-08T03:13:16;13.60;99.90
782;DHT22;374;52.568;13.402;2023-10-08T03:15:42;13.60;99.90
782;DHT22;374;52.568;13.402;2023-10-08T03:18:29;13.60;99.90
782;DHT22;374;52.568;13.402;2023-10-08T03:21:05;13.60;99.90
782;DHT22;374;52.568;13.402;2023-10-08T03:23:45;13.60;99.90
782;DHT22;374;52.568;13.402;2023-10-08T03:26:13;13.60;99.90
782;DHT22;374;52.568;13.402;2023-10-08T03:28:59;13.60;99.90
782;DHT22;374;52.568;13.402;2023-10-08T03:31:25;13.60;99.90
782;DHT22;374;52.568;13.402;2023-10-08T03:34:16;13.60;99.90
782;DHT22;374;52.568;13.402;2023-10-08T03:36:44;13.50;99.90
782;DHT22;374;52.568;13.402;2023-10-08T03:39:13;13.50;99.90
782;DHT22;374;52.568;13.402;2023-10-08T03:41:42;13.50;99.90
782;DHT22;374;52.568;13.402;2023-10-08T03:44:17;13.50;99.90
782;DHT22;374;52.568;13.402;2023-10-08T03:46:43;13.50;99.90
782;DHT22;374;52.568;13.402;2023-10-08T03:49:09;13.50;99.90
782;DHT22;374;52.568;13.402;2023-10-08T03:51:47;13.50;99.90
782;DHT22;374;52.568;13.402;2023-10-08T03:54:17;13.50;99.90
782;DHT22;374;52.568;13.402;2023-10-08T03:56:45;13.50;99.90
782;DHT22;374;52.568;13.402;2023-10-08T03:59:14;13.50;99.90
782;DHT22;374;52.568;13.402;2023-10-08T04:01:45;13.40;99.90
782;DHT22;374;52.568;13.402;2023-10-08T04:04:11;13.40;99.90
782;DHT22;374;52.568;13.402;2023-10-08T04:06:41;13.50;99.90
782;DHT22;374;52.568;13.402;2023-10-08T04:09:15;13.40;99.90
782;DHT22;374;52.568;13.402;2023-10-08T04:11:51;13.40;99.90
782;DHT22;374;52.568;13.402;2023-10-08T04:14:20;13.40;99.90
782;DHT22;374;52.568;13.402;2023-10-08T04:16:46;13.40;99.90
782;DHT22;374;52.568;13.402;2023-10-08T04:19:16;13.40;99.90
782;DHT22;374;52.568;13.402;2023-10-08T04:21:43;13.30;99.90
782;DHT22;374;52.568;13.402;2023-10-08T04:24:09;13.30;99.90
782;DHT22;374;52.568;13.402;2023-10-08T04:26:35;13.30;99.90
782;DHT22;374;52.568;13.402;2023-10-08T04:29:02;13.30;99.90
782;DHT22;374;52.568;13.402;2023-10-08T04:31:28;13.30;99.90
782;DHT22;374;52.568;13.402;2023-10-08T04:34:05;13.30;99.90
782;DHT22;374;52.568;13.402;2023-10-08T04:36:45;13.30;99.90
782;DHT22;374;52.568;13.402;2023-10-08T04:39:12;13.30;99.90
782;DHT22;374;52.568;13.402;2023-10-08T04:41:42;13.30;99.90
782;DHT22;374;52.568;13.402;2023-10-08T04:44:08;13.30;99.90
782;DHT22;374;52.568;13.402;2023-10-08T04:46:40;13.20;99.90
782;DHT22;374;52.568;13.402;2023-10-08T04:49:15;13.20;99.90
782;DHT22;374;52.568;13.402;2023-10-08T04:51:57;13.20;99.90
782;DHT22;374;52.568;13.402;2023-10-08T04:54:24;13.20;99.90
782;DHT22;374;52.568;13.402;2023-10-08T04:56:50;13.20;99.90
782;DHT22;374;52.568;13.402;2023-10-08T04:59:16;13.20;99.90
782;DHT22;374;52.568;13.402;2023-10-08T05:01:46;13.10;99.90
782;DHT22;374;52.568;13.402;2023-10-08T05:04:35;13.10;99.90
782;DHT22;374;52.568;13.402;2023-10-08T05:07:11;13.10;99.90
782;DHT22;374;52.568;13.402;2023-10-08T05:09:49;13.10;99.90
782;DHT22;374;52.568;13.402;2023-10-08T05:12:38;13.10;99.90
782;DHT22;374;52.568;13.402;2023-10-08T05:15:11;13.10;99.90
782;DHT22;374;52.568;13.402;2023-10-08T05:17:48;13.00;99.90
782;DHT22;374;52.568;13.402;2023-10-08T05:20:18;13.00;99.90
782;DHT22;374;52.568;13.402;2023-10-08T05:23:12;13.00;99.90
782;DHT22;374;52.568;13.402;2023-10-08T05:26:03;13.00;99.90
782;DHT22;374;52.568;13.402;2023-10-08T05:28:45;13.00;99.90
782;DHT22;374;52.568;13.402;2023-10-08T05:31:29;13.00;99.90
782;DHT22;374;52.568;13.402;2023-10-08T05:34:07;12.90;99.90
782;DHT22;374;52.568;13.402;2023-10-08T05:36:51;12.90;99.90
782;DHT22;374;52.568;13.402;2023-10-08T05:39:26;12.90;99.90
782;DHT22;374;52.568;13.402;2023-10-08T05:42:19;12.90;99.90
782;DHT22;374;52.568;13.402;2023-10-08T05:44:56;12.80;99.90
782;DHT22;374;52.568;13.402;2023-10-08T05:47:34;12.80;99.90
782;DHT22;374;52.568;13.402;2023-10-08T05:50:00;12.80;99.90
782;DHT22;374;52.568;13.402;2023-10-08T05:52:54;12.80;99.90
782;DHT22;374;52.568;13.402;2023-10-08T05:55:27;12.80;99.90
782;DHT22;374;52.568;13.402;2023-10-08T05:58:05;12.80;99.90
782;DHT22;374;52.568;13.402;2023-10-08T06:00:47;12.80;99.90
782;DHT22;374;52.568;13.402;2023-10-08T06:03:19;12.80;99.90
782;DHT22;374;52.568;13.402;2023-10-08T06:06:02;12.80;99.90
782;DHT22;374;52.568;13.402;2023-10-08T06:08:36;12.80;99.90
782;DHT22;374;52.568;13.402;2023-10-08T06:11:20;12.80;99.90
782;DHT22;374;52.568;13.402;2023-10-08T06:14:05;12.70;99.90
782;DHT22;374;52.568;13.402;2023-10-08T06:16:40;12.70;99.90
782;DHT22;374;52.568;13.402;2023-10-08T06:19:10;12.70;99.90
782;DHT22;374;52.568;13.402;2023-10-08T06:21:41;12.70;99.90
782;DHT22;374;52.568;13.402;2023-10-08T06:24:08;12.70;99.90
782;DHT22;374;52.568;13.402;2023-10-08T06:26:36;12.70;99.90
782;DHT22;374;52.568;13.402;2023-10-08T06:29:10;12.80;99.90
782;DHT22;374;52.568;13.402;2023-10-08T06:31:51;12.80;99.90
782;DHT22;374;52.568;13.402;2023-10-08T06:34:20;12.80;99.90
782;DHT22;374;52.568;13.402;2023-10-08T06:36:50;12.80;99.90
782;DHT22;374;52.568;13.402;2023-10-08T06:39:23;12.80;99.90
782;DHT22;374;52.568;13.402;2023-10-08T06:42:11;12.70;99.90
782;DHT22;374;52.568;13.402;2023-10-08T06:44:37;12.70;99.90
782;DHT22;374;52.568;13.402;2023-10-08T06:47:04;12.70;99.90
782;DHT22;374;52.568;13.402;2023-10-08T06:49:35;12.70;99.90
782;DHT22;374;52.568;13.402;2023-10-08T06:52:01;12.70;99.90
782;DHT22;374;52.568;13.402;2023-10-08T06:54:27;12.70;99.90
782;DHT22;374;52.568;13.402;2023-10-08T06:56:56;12.70;99.90
782;DHT22;374;52.568;13.402;2023-10-08T06:59:21;12.70;99.90
782;DHT22;374;52.568;13.402;2023-10-08T07:01:51;12.70;99.90
782;DHT22;374;52.568;13.402;2023-10-08T07:04:17;12.70;99.90
782;DHT22;374;52.568;13.402;2023-10-08T07:06:44;12.70;99.90
782;DHT22;374;52.568;13.402;2023-10-08T07:09:14;12.70;99.90
782;DHT22;374;52.568;13.402;2023-10-08T07:11:55;12.70;99.90
782;DHT22;374;52.568;13.402;2023-10-08T07:14:25;12.70;99.90
782;DHT22;374;52.568;13.402;2023-10-08T07:16:59;12.70;99.90
782;DHT22;374;52.568;13.402;2023-10-08T07:19:26;12.70;99.90
782;DHT22;374;52.568;13.402;2023-10-08T07:22:02;12.60;99.90
782;DHT22;374;52.568;13.402;2023-10-08T07:24:31;12.70;99.90
782;DHT22;374;52.568;13.402;2023-10-08T07:27:03;12.70;99.90
782;DHT22;374;52.568;13.402;2023-10-08T07:29:34;12.70;99.90
782;DHT22;374;52.568;13.402;2023-10-08T07:32:03;12.70;99.90
782;DHT22;374;52.568;13.402;2023-10-08T07:34:38;12.70;99.90
782;DHT22;374;52.568;13.402;2023-10-08T07:37:04;12.70;99.90
782;DHT22;374;52.568;13.402;2023-10-08T07:39:31;12.80;99.90
782;DHT22;374;52.568;13.402;2023-10-08T07:41:57;12.70;99.90
782;DHT22;374;52.568;13.402;2023-10-08T07:44:25;12.80;99.90
782;DHT22;374;52.568;13.402;2023-10-08T07:46:52;12.80;99.90
782;DHT22;374;52.568;13.402;2023-10-08T07:49:26;12.80;99.90
782;DHT22;374;52.568;13.402;2023-10-08T07:51:56;12.80;99.90
782;DHT22;374;52.568;13.402;2023-10-08T07:54:23;12.80;99.90
782;DHT22;374;52.568;13.402;2023-10-08T07:56:50;12.80;99.90
782;DHT22;374;52.568;13.402;2023-10-08T07:59:43;12.80;99.90
782;DHT22;374;52.568;13.402;2023-10-08T08:02:13;12.80;99.90
782;DHT22;374;52.568;13.402;2023-10-08T08:04:39;12.70;99.90
782;DHT22;374;52.568;13.402;2023-10-08T08:07:06;12.70;99.90
782;DHT22;374;52.568;13.402;2023-10-08T08:09:32;12.80;99.90
782;DHT22;374;52.568;13.402;2023-10-08T08:12:08;12.80;99.90
782;DHT22;374;52.568;13.402;2023-10-08T08:14:35;12.80;99.90
782;DHT22;374;52.568;13.402;2023-10-08T08:17:05;12.90;99.90
782;DHT22;374;52.568;13.402;2023-10-08T08:19:45;12.80;99.90
782;DHT22;374;52.568;13.402;2023-10-08T08:22:17;12.90;99.90
782;DHT22;374;52.568;13.402;2023-10-08T08:24:56;12.80;99.90
782;DHT22;374;52.568;13.402;2023-10-08T08:27:30;12.80;99.90
782;DHT22;374;52.568;13.402;2023-10-08T08:30:00;12.90;99.90
782;DHT22;374;52.568;13.402;2023-10-08T08:32:39;12.90;99.90
782;DHT22;374;52.568;13.402;2023-10-08T08:35:06;12.90;99.90
782;DHT22;374;52.568;13.402;2023-10-08T08:37:33;12.90;99.90
782;DHT22;374;52.568;13.402;2023-10-08T08:40:04;12.90;99.90
782;DHT22;374;52.568;13.402;2023-10-08T08:42:49;12.80;99.90
782;DHT22;374;52.568;13.402;2023-10-08T08:45:20;12.80;99.90
782;DHT22;374;52.568;13.402;2023-10-08T08:47:46;12.80;99.90
782;DHT22;374;52.568;13.402;2023-10-08T08:50:12;12.90;99.90
782;DHT22;374;52.568;13.402;2023-10-08T08:52:38;12.90;99.90
782;DHT22;374;52.568;13.402;2023-10-08T08:55:11;12.90;99.90
782;DHT22;374;52.568;13.402;2023-10-08T08:57:45;12.90;99.90
782;DHT22;374;52.568;13.402;2023-10-08T09:00:12;12.90;99.90
782;DHT22;374;52.568;13.402;2023-10-08T09:02:38;12.90;99.90
782;DHT22;374;52.568;13.402;2023-10-08T09:05:06;12.80;99.90
782;DHT22;374;52.568;13.402;2023-10-08T09:07:58;12.80;99.90
782;DHT22;374;52.568;13.402;2023-10-08T09:10:28;12.90;99.90
782;DHT22;374;52.568;13.402;2023-10-08T09:12:58;12.90;99.90
782;DHT22;374;52.568;13.402;2023-10-08T09:15:27;12.90;99.90
782;DHT22;374;52.568;13.402;2023-10-08T09:17:56;13.00;99.90
782;DHT22;374;52.568;13.402;2023-10-08T09:20:22;12.90;99.90
782;DHT22;374;52.568;13.402;2023-10-08T09:23:08;13.00;99.90
782;DHT22;374;52.568;13.402;2023-10-08T09:25:40;13.00;99.90
782;DHT22;374;52.568;13.402;2023-10-08T09:28:06;13.00;99.90
782;DHT22;374;52.568;13.402;2023-10-08T09:30:34;13.00;99.90
782;DHT22;374;52.568;13.402;2023-10-08T09:33:07;13.00;99.90
782;DHT22;374;52.568;13.402;2023-10-08T09:35:33;13.10;99.90
782;DHT22;374;52.568;13.402;2023-10-08T09:38:02;13.10;99.90
782;DHT22;374;52.568;13.402;2023-10-08T09:40:28;13.10;99.90
782;DHT22;374;52.568;13.402;2023-10-08T09:42:55;13.10;99.90
782;DHT22;374;52.568;13.402;2023-10-08T09:45:24;13.10;99.90
782;DHT22;374;52.568;13.402;2023-10-08T09:47:53;13.10;99.90
782;DHT22;374;52.568;13.402;2023-10-08T09:50:22;13.20;99.90
782;DHT22;374;52.568;13.402;2023-10-08T09:53:05;13.10;99.90
782;DHT22;374;52.568;13.402;2023-10-08T09:55:33;13.20;99.90
782;DHT22;374;52.568;13.402;2023-10-08T09:57:59;13.10;99.90
782;DHT22;374;52.568;13.402;2023-10-08T10:00:27;13.00;99.90
782;DHT22;374;52.568;13.402;2023-10-08T10:02:58;13.10;99.90
782;DHT22;374;52.568;13.402;2023-10-08T10:05:29;13.10;99.90
782;DHT22;374;52.568;13.402;2023-10-08T10:07:56;13.10;99.90
782;DHT22;374;52.568;13.402;2023-10-08T10:10:30;13.10;99.90
782;DHT22;374;52.568;13.402;2023-10-08T10:13:01;13.10;99.90
782;DHT22;374;52.568;13.402;2023-10-08T10:15:27;13.20;99.90
782;DHT22;374;52.568;13.402;2023-10-08T10:18:00;13.20;99.90
782;DHT22;374;52.568;13.402;2023-10-08T10:20:45;13.10;99.90
782;DHT22;374;52.568;13.402;2023-10-08T10:26:01;13.20;99.90
782;DHT22;374;52.568;13.402;2023-10-08T10:28:30;13.10;99.90
782;DHT22;374;52.568;13.402;2023-10-08T10:30:56;13.10;99.90
782;DHT22;374;52.568;13.402;2023-10-08T10:33:32;13.10;99.90
782;DHT22;374;52.568;13.402;2023-10-08T10:36:03;13.10;99.90
782;DHT22;374;52.568;13.402;2023-10-08T10:38:30;13.10;99.90
782;DHT22;374;52.568;13.402;2023-10-08T10:40:58;13.00;99.90
782;DHT22;374;52.568;13.402;2023-10-08T10:43:25;12.90;99.90
782;DHT22;374;52.568;13.402;2023-10-08T10:45:59;12.90;99.90
782;DHT22;374;52.568;13.402;2023-10-08T10:48:25;12.90;99.90
782;DHT22;374;52.568;13.402;2023-10-08T10:51:00;13.00;99.90
782;DHT22;374;52.568;13.402;2023-10-08T10:53:32;13.00;99.90
782;DHT22;374;52.568;13.402;2023-10-08T10:55:59;13.00;99.90
782;DHT22;374;52.568;13.402;2023-10-08T10:58:35;13.00;99.90
782;DHT22;374;52.568;13.402;2023-10-08T11:01:06;13.10;99.90
782;DHT22;374;52.568;13.402;2023-10-08T11:03:52;13.00;99.90
782;DHT22;374;52.568;13.402;2023-10-08T11:06:19;12.90;99.90
782;DHT22;374;52.568;13.402;2023-10-08T11:08:51;13.00;99.90
782;DHT22;374;52.568;13.402;2023-10-08T11:11:27;13.10;99.90
782;DHT22;374;52.568;13.402;2023-10-08T11:13:57;13.10;99.90
782;DHT22;374;52.568;13.402;2023-10-08T11:16:25;13.10;99.90
782;DHT22;374;52.568;13.402;2023-10-08T11:18:51;13.10;99.90
782;DHT22;374;52.568;13.402;2023-10-08T11:21:17;13.00;99.90
782;DHT22;374;52.568;13.402;2023-10-08T11:23:51;13.10;99.90
782;DHT22;374;52.568;13.402;2023-10-08T11:26:25;13.10;99.90
782;DHT22;374;52.568;13.402;2023-10-08T11:29:00;13.10;99.90
782;DHT22;374;52.568;13.402;2023-10-08T11:31:28;13.30;99.90
782;DHT22;374;52.568;13.402;2023-10-08T11:34:02;13.30;99.90
782;DHT22;374;52.568;13.402;2023-10-08T11:36:35;13.20;99.90
782;DHT22;374;52.568;13.402;2023-10-08T11:39:11;13.10;99.90
782;DHT22;374;52.568;13.402;2023-10-08T11:41:55;13.10;99.90
782;DHT22;374;52.568;13.402;2023-10-08T11:44:20;13.20;99.90
782;DHT22;374;52.568;13.402;2023-10-08T11:46:48;13.20;99.90
782;DHT22;374;52.568;13.402;2023-10-08T11:49:17;13.10;99.90
782;DHT22;374;52.568;13.402;2023-10-08T11:51:44;13.10;99.90
782;DHT22;374;52.568;13.402;2023-10-08T11:54:11;13.10;99.90
782;DHT22;374;52.568;13.402;2023-10-08T11:56:40;13.10;99.90
782;DHT22;374;52.568;13.402;2023-10-08T11:59:05;13.10;99.90
782;DHT22;374;52.568;13.402;2023-10-08T12:01:35;13.10;99.90
782;DHT22;374;52.568;13.402;2023-10-08T12:04:01;13.10;99.90
782;DHT22;374;52.568;13.402;2023-10-08T12:06:27;13.20;99.90
782;DHT22;374;52.568;13.402;2023-10-08T12:08:56;13.10;99.90
782;DHT22;374;52.568;13.402;2023-10-08T12:11:24;13.20;99.90
782;DHT22;374;52.568;13.402;2023-10-08T12:13:57;13.30;99.90
782;DHT22;374;52.568;13.402;2023-10-08T12:16:25;13.30;99.90
782;DHT22;374;52.568;13.402;2023-10-08T12:18:54;13.30;99.90
782;DHT22;374;52.568;13.402;2023-10-08T12:21:24;13.30;99.90
782;DHT22;374;52.568;13.402;2023-10-08T12:23:50;13.30;99.90
782;DHT22;374;52.568;13.402;2023-10-08T12:26:17;13.20;99.90
782;DHT22;374;52.568;13.402;2023-10-08T12:28:47;13.10;99.90
782;DHT22;374;52.568;13.402;2023-10-08T12:31:19;13.20;99.90
782;DHT22;374;52.568;13.402;2023-10-08T12:33:51;13.30;99.90
782;DHT22;374;52.568;13.402;2023-10-08T12:36:19;13.30;99.90
782;DHT22;374;52.568;13.402;2023-10-08T12:38:48;13.30;99.90
782;DHT22;374;52.568;13.402;2023-10-08T12:41:14;13.30;99.90
782;DHT22;374;52.568;13.402;2023-10-08T12:43:41;13.10;99.90
782;DHT22;374;52.568;13.402;2023-10-08T12:46:18;13.30;99.90
782;DHT22;374;52.568;13.402;2023-10-08T12:48:47;13.10;99.90
782;DHT22;374;52.568;13.402;2023-10-08T12:51:17;13.10;99.90
782;DHT22;374;52.568;13.402;2023-10-08T12:53:45;13.20;99.90
782;DHT22;374;52.568;13.402;2023-10-08T12:56:24;13.30;99.90
782;DHT22;374;52.568;13.402;2023-10-08T12:58:57;13.30;99.90
782;DHT22;374;52.568;13.402;2023-10-08T13:01:23;13.30;99.90
782;DHT22;374;52.568;13.402;2023-10-08T13:03:48;13.30;99.90
782;DHT22;374;52.568;13.402;2023-10-08T13:06:16;13.30;99.90
782;DHT22;374;52.568;13.402;2023-10-08T13:08:48;13.30;99.90
782;DHT22;374;52.568;13.402;2023-10-08T13:11:14;13.40;99.90
782;DHT22;374;52.568;13.402;2023-10-08T13:13:40;13.30;99.90
782;DHT22;374;52.568;13.402;2023-10-08T13:16:06;13.30;99.90
782;DHT22;374;52.568;13.402;2023-10-08T13:18:35;13.40;99.90
782;DHT22;374;52.568;13.402;2023-10-08T13:21:03;13.40;99.90
782;DHT22;374;52.568;13.402;2023-10-08T13:23:29;13.40;99.90
782;DHT22;374;52.568;13.402;2023-10-08T13:25:54;13.40;99.90
782;DHT22;374;52.568;13.402;2023-10-08T13:28:21;13.40;99.90
782;DHT22;374;52.568;13.402;2023-10-08T13:30:50;13.30;99.90
782;DHT22;374;52.568;13.402;2023-10-08T13:33:20;13.40;99.90
782;DHT22;374;52.568;13.402;2023-10-08T13:35:48;13.40;99.90
782;DHT22;374;52.568;13.402;2023-10-08T13:38:18;13.30;99.90
782;DHT22;374;52.568;13.402;2023-10-08T13:40:49;13.10;99.90
782;DHT22;374;52.568;13.402;2023-10-08T13:43:36;13.10;99.90
782;DHT22;374;52.568;13.402;2023-10-08T13:46:04;13.30;99.90
782;DHT22;374;52.568;13.402;2023-10-08T13:48:36;13.20;99.90
782;DHT22;374;52.568;13.402;2023-10-08T13:51:03;13.20;99.90
782;DHT22;374;52.568;13.402;2023-10-08T13:53:33;13.10;99.90
782;DHT22;374;52.568;13.402;2023-10-08T13:56:01;13.20;99.90
782;DHT22;374;52.568;13.402;2023-10-08T13:58:30;13.30;99.90
782;DHT22;374;52.568;13.402;2023-10-08T14:00:59;13.30;99.90
782;DHT22;374;52.568;13.402;2023-10-08T14:03:39;13.30;99.90
782;DHT22;374;52.568;13.402;2023-10-08T14:06:06;13.40;99.90
782;DHT22;374;52.568;13.402;2023-10-08T14:08:33;13.20;99.90
782;DHT22;374;52.568;13.402;2023-10-08T14:10:58;13.30;99.90
782;DHT22;374;52.568;13.402;2023-10-08T14:13:31;13.40;99.90
782;DHT22;374;52.568;13.402;2023-10-08T14:16:01;13.30;99.90
782;DHT22;374;52.568;13.402;2023-10-08T14:18:33;13.40;99.90
782;DHT22;374;52.568;13.402;2023-10-08T14:21:06;13.30;99.90
782;DHT22;374;52.568;13.402;2023-10-08T14:23:38;13.20;99.90
782;DHT22;374;52.568;13.402;2023-10-08T14:26:08;13.40;99.90
782;DHT22;374;52.568;13.402;2023-10-08T14:28:35;13.50;99.90
782;DHT22;374;52.568;13.402;2023-10-08T14:31:18;13.50;99.90
782;DHT22;374;52.568;13.402;2023-10-08T14:33:47;13.30;99.90
782;DHT22;374;52.568;13.402;2023-10-08T14:36:48;13.30;99.90
782;DHT22;374;52.568;13.402;2023-10-08T14:39:33;13.40;99.90
782;DHT22;374;52.568;13.402;2023-10-08T14:42:18;13.40;99.90
782;DHT22;374;52.568;13.402;2023-10-08T14:45:03;13.50;99.90
782;DHT22;374;52.568;13.402;2023-10-08T14:47:35;13.40;99.90
782;DHT22;374;52.568;13.402;2023-10-08T14:50:01;13.30;99.90
782;DHT22;374;52.568;13.402;2023-10-08T14:52:30;13.40;99.90
782;DHT22;374;52.568;13.402;2023-10-08T14:54:56;13.40;99.90
782;DHT22;374;52.568;13.402;2023-10-08T14:57:22;13.30;99.90
782;DHT22;374;52.568;13.402;2023-10-08T14:59:47;13.30;99.90
782;DHT22;374;52.568;13.402;2023-10-08T15:02:16;13.50;99.90
782;DHT22;374;52.568;13.402;2023-10-08T15:04:41;13.50;99.90
782;DHT22;374;52.568;13.402;2023-10-08T15:07:07;13.50;99.90
782;DHT22;374;52.568;13.402;2023-10-08T15:09:43;13.40;99.90
782;DHT22;374;52.568;13.402;2023-10-08T15:12:09;13.30;99.90
782;DHT22;374;52.568;13.402;2023-10-08T15:14:35;13.40;99.90
782;DHT22;374;52.568;13.402;2023-10-08T15:17:04;13.40;99.90
782;DHT22;374;52.568;13.402;2023-10-08T15:19:30;13.50;99.90
782;DHT22;374;52.568;13.402;2023-10-08T15:21:57;13.50;99.90
782;DHT22;374;52.568;13.402;2023-10-08T15:24:23;13.40;99.90
782;DHT22;374;52.568;13.402;2023-10-08T15:26:50;13.40;99.90
782;DHT22;374;52.568;13.402;2023-10-08T15:29:20;13.40;99.90
782;DHT22;374;52.568;13.402;2023-10-08T15:31:49;13.30;99.90
782;DHT22;374;52.568;13.402;2023-10-08T15:34:17;13.30;99.90
782;DHT22;374;52.568;13.402;2023-10-08T15:36:42;13.40;99.90
782;DHT22;374;52.568;13.402;2023-10-08T15:39:08;13.40;99.90
782;DHT22;374;52.568;13.402;2023-10-08T15:41:48;13.50;99.90
782;DHT22;374;52.568;13.402;2023-10-08T15:44:13;13.50;99.90
782;DHT22;374;52.568;13.402;2023-10-08T15:46:39;13.40;99.90
782;DHT22;374;52.568;13.402;2023-10-08T15:49:04;13.40;99.90
782;DHT22;374;52.568;13.402;2023-10-08T15:51:30;13.40;99.90
782;DHT22;374;52.568;13.402;2023-10-08T15:53:58;13.40;99.90
782;DHT22;374;52.568;13.402;2023-10-08T15:56:24;13.40;99.90
782;DHT22;374;52.568;13.402;2023-10-08T15:58:52;13.50;99.90
782;DHT22;374;52.568;13.402;2023-10-08T16:01:17;13.40;99.90
782;DHT22;374;52.568;13.402;2023-10-08T16:03:43;13.50;99.90
782;DHT22;374;52.568;13.402;2023-10-08T16:06:08;13.40;99.90
782;DHT22;374;52.568;13.402;2023-10-08T16:08:34;13.40;99.90
782;DHT22;374;52.568;13.402;2023-10-08T16:10:59;13.40;99.90
782;DHT22;374;52.568;13.402;2023-10-08T16:13:24;13.40;99.90
782;DHT22;374;52.568;13.402;2023-10-08T16:15:50;13.40;99.90
782;DHT22;374;52.568;13.402;2023-10-08T16:18:16;13.40;99.90
782;DHT22;374;52.568;13.402;2023-10-08T16:20:43;13.40;99.90
782;DHT22;374;52.568;13.402;2023-10-08T16:23:09;13.40;99.90
782;DHT22;374;52.568;13.402;2023-10-08T16:25:35;13.40;99.90
782;DHT22;374;52.568;13.402;2023-10-08T16:28:01;13.40;99.90
782;DHT22;374;52.568;13.402;2023-10-08T16:30:29;13.40;99.90
782;DHT22;374;52.568;13.402;2023-10-08T16:32:58;13.40;99.90
782;DHT22;374;52.568;13.402;2023-10-08T16:35:24;13.40;99.90
782;DHT22;374;52.568;13.402;2023-10-08T16:37:50;13.40;99.90
782;DHT22;374;52.568;13.402;2023-10-08T16:40:16;13.50;99.90
782;DHT22;374;52.568;13.402;2023-10-08T16:42:44;13.40;99.90